Time;durP1;ratioP1;P1;durP2;ratioP2;P2;SDS_P1;SDS_P2;PMS_P1;PMS_P2;Temp;Humidity;BMP_temperature;BMP_pressure;BME280_temperature;BME280_humidity;BME280_pressure;Samples;Min_cycle;Max_cycle;Signal;HPM_P1;HPM_P2
2022/10/03 00:00:06;;;;;;;5.30;2.90;;;;;;;10.27;86.34;99576.77;130368;1267;109735;-79
2022/10/03 00:03:40;;;;;;;5.10;2.90;;;;;;;10.25;87.18;99576.06;130402;1267;110506;-78
2022/10/03 00:06:56;;;;;;;4.30;2.40;;;;;;;10.23;87.10;99575.04;130517;1267;108694;-80
2022/10/03 00:10:18;;;;;;;7.30;2.90;;;;;;;10.27;87.67;99575.37;130596;1267;108703;-80
2022/10/03 00:13:28;;;;;;;6.00;2.50;;;;;;;10.28;86.97;99572.43;130586;1267;107696;-79
2022/10/03 00:16:46;;;;;;;6.00;2.70;;;;;;;10.32;87.29;99578.07;130410;1268;108752;-80
2022/10/03 00:20:02;;;;;;;6.80;2.80;;;;;;;10.32;86.82;99580.02;130465;1268;108651;-80
2022/10/03 00:23:14;;;;;;;8.50;3.20;;;;;;;10.36;86.68;99580.20;130534;1267;108598;-80
2022/10/03 00:26:29;;;;;;;4.80;2.90;;;;;;;10.39;86.32;99578.08;130537;1268;108953;-79
2022/10/03 00:30:02;;;;;;;4.50;2.90;;;;;;;10.42;86.78;99573.02;130507;1267;108547;-79
2022/10/03 00:33:19;;;;;;;7.40;3.10;;;;;;;10.34;86.51;99571.02;130545;1268;108825;-80
2022/10/03 00:36:36;;;;;;;5.30;3.30;;;;;;;10.35;86.58;99567.92;130595;1267;108726;-79
2022/10/03 00:39:59;;;;;;;7.30;3.00;;;;;;;10.39;86.40;99570.35;130587;1267;108773;-80
2022/10/03 00:43:34;;;;;;;6.30;3.40;;;;;;;10.35;86.41;99568.13;130667;1268;108797;-79
2022/10/03 00:47:21;;;;;;;6.40;2.80;;;;;;;10.32;86.01;99559.66;130449;1268;108856;-79
2022/10/03 00:50:49;;;;;;;4.40;2.40;;;;;;;10.25;86.79;99559.54;130217;1268;109045;-79
2022/10/03 00:54:13;;;;;;;3.90;2.70;;;;;;;10.19;86.64;99552.84;130463;1267;108818;-79
2022/10/03 00:57:35;;;;;;;4.50;2.80;;;;;;;10.22;86.40;99550.45;130721;1268;109049;-79
2022/10/03 01:00:49;;;;;;;4.50;2.70;;;;;;;10.20;86.56;99549.90;130722;1268;107673;-79
2022/10/03 01:04:09;;;;;;;4.40;2.60;;;;;;;10.16;86.57;99550.14;130591;1267;107715;-78
2022/10/03 01:07:42;;;;;;;5.90;2.40;;;;;;;10.15;86.81;99548.95;130407;1267;108763;-79
2022/10/03 01:10:59;;;;;;;3.30;2.10;;;;;;;10.12;86.78;99547.88;130362;1268;108709;-79
2022/10/03 01:14:22;;;;;;;7.40;2.20;;;;;;;10.16;86.69;99543.48;130704;1267;108745;-79
2022/10/03 01:17:36;;;;;;;4.20;2.60;;;;;;;10.22;86.88;99545.64;130546;1268;107252;-79
2022/10/03 01:20:52;;;;;;;4.00;2.20;;;;;;;10.18;87.03;99544.85;130517;1267;108618;-78
2022/10/03 01:24:26;;;;;;;7.50;2.30;;;;;;;10.18;86.90;99541.64;130413;1267;109022;-79
2022/10/03 01:31:09;;;;;;;7.60;2.20;;;;;;;10.17;87.07;99539.79;130472;1267;108697;-78
2022/10/03 01:34:27;;;;;;;5.10;2.30;;;;;;;10.23;86.97;99535.41;130494;1267;108707;-77
2022/10/03 01:37:40;;;;;;;5.90;2.40;;;;;;;10.24;86.64;99536.16;130524;1267;108760;-78
2022/10/03 01:40:49;;;;;;;;;;;;;;;10.22;86.80;99541.88;130419;1267;108976;-78
2022/10/03 01:44:02;;;;;;;4.80;2.20;;;;;;;10.20;86.88;99540.25;130337;1267;108750;-78
2022/10/03 01:47:19;;;;;;;6.60;2.00;;;;;;;10.17;87.21;99544.02;130502;1267;108890;-78
2022/10/03 01:50:35;;;;;;;4.90;1.60;;;;;;;10.16;87.11;99546.50;130408;1267;108627;-78
2022/10/03 01:53:54;;;;;;;4.30;2.00;;;;;;;10.15;87.40;99541.62;130434;1267;108874;-78
2022/10/03 01:57:10;;;;;;;4.10;1.90;;;;;;;10.10;87.40;99542.39;130315;1268;109502;-79
2022/10/03 02:00:19;;;;;;;6.70;2.20;;;;;;;10.09;87.44;99540.85;130560;1268;106933;-78
2022/10/03 02:03:33;;;;;;;5.20;2.00;;;;;;;10.11;87.26;99540.08;130884;1267;108687;-78
2022/10/03 02:06:52;;;;;;;3.80;1.60;;;;;;;10.10;87.36;99534.15;131101;1266;108726;-78
2022/10/03 02:10:09;;;;;;;5.90;2.00;;;;;;;10.14;87.07;99529.83;130678;1267;108717;-78
2022/10/03 02:13:22;;;;;;;4.30;1.90;;;;;;;10.16;87.11;99527.09;130686;1267;108966;-78
2022/10/03 02:16:38;;;;;;;20.30;6.80;;;;;;;10.18;87.01;99527.29;130644;1267;107735;-78
2022/10/03 02:19:49;;;;;;;12.50;5.80;;;;;;;10.15;86.98;99525.48;130600;1267;108344;-77
2022/10/03 02:22:56;;;;;;;6.40;3.10;;;;;;;10.15;87.19;99528.89;130507;1267;108864;-78
2022/10/03 02:26:26;;;;;;;6.50;2.20;;;;;;;10.16;87.01;99529.02;130563;1267;108764;-77
2022/10/03 02:30:02;;;;;;;4.00;1.80;;;;;;;10.17;87.33;99527.74;130442;1267;108682;-77
2022/10/03 02:33:32;;;;;;;10.10;4.90;;;;;;;10.16;87.96;99529.38;130541;1268;108614;-77
2022/10/03 02:37:17;;;;;;;4.80;2.10;;;;;;;10.10;88.76;99531.35;130560;1267;108902;-77
2022/10/03 02:40:38;;;;;;;3.90;2.20;;;;;;;10.09;88.77;99521.99;130769;1267;108650;-77
2022/10/03 02:44:11;;;;;;;3.60;1.50;;;;;;;10.02;89.69;99523.34;130399;1267;108538;-77
2022/10/03 02:47:40;;;;;;;3.60;1.70;;;;;;;9.99;89.44;99527.04;130657;1267;109393;-77
2022/10/03 02:51:26;;;;;;;6.00;2.20;;;;;;;9.98;89.80;99524.97;130509;1268;108684;-77
2022/10/03 02:54:58;;;;;;;4.20;2.30;;;;;;;9.98;89.85;99519.63;129928;1273;109171;-75
2022/10/03 02:58:35;;;;;;;5.80;2.40;;;;;;;10.05;89.25;99520.46;129879;1271;108856;-77
2022/10/03 03:01:59;;;;;;;4.00;2.00;;;;;;;10.08;89.38;99513.10;130422;1268;109204;-78
2022/10/03 03:05:29;;;;;;;4.90;2.10;;;;;;;10.12;89.32;99505.73;130463;1267;108819;-78
2022/10/03 03:09:02;;;;;;;4.00;1.80;;;;;;;10.13;89.49;99510.40;130499;1267;109068;-77
2022/10/03 03:12:29;;;;;;;4.90;2.10;;;;;;;10.16;89.39;99504.83;130439;1267;108812;-79
2022/10/03 03:16:10;;;;;;;5.00;2.30;;;;;;;10.23;89.18;99501.62;130439;1268;108843;-78
2022/10/03 03:19:32;;;;;;;5.50;1.90;;;;;;;10.21;89.36;99495.91;130266;1268;108737;-77
2022/10/03 03:22:49;;;;;;;4.80;2.20;;;;;;;10.21;89.85;99501.11;130480;1268;109045;-78
2022/10/03 03:26:15;;;;;;;4.10;2.00;;;;;;;10.21;89.47;99496.71;130550;1268;108735;-77
2022/10/03 03:29:31;;;;;;;4.90;2.20;;;;;;;10.23;90.08;99491.64;130446;1267;108857;-78
2022/10/03 03:32:49;;;;;;;3.80;2.00;;;;;;;10.24;89.86;99492.69;130498;1268;108473;-77
2022/10/03 03:36:04;;;;;;;4.70;2.20;;;;;;;10.26;90.04;99500.66;130430;1266;108790;-78
2022/10/03 03:39:23;;;;;;;6.00;1.80;;;;;;;10.17;90.68;99494.98;130329;1268;108736;-78
2022/10/03 03:42:46;;;;;;;5.20;2.20;;;;;;;10.13;90.95;99492.98;130432;1267;109775;-77
2022/10/03 03:46:05;;;;;;;5.10;2.20;;;;;;;10.17;90.58;99490.02;130397;1267;108770;-78
2022/10/03 03:49:30;;;;;;;4.40;2.30;;;;;;;10.18;90.98;99490.13;130452;1268;106994;-79
2022/10/03 03:52:49;;;;;;;4.10;2.10;;;;;;;10.16;91.00;99491.05;130476;1268;108662;-79
2022/10/03 03:56:16;;;;;;;5.90;2.70;;;;;;;10.16;91.11;99491.70;130476;1268;108815;-79
2022/10/03 03:59:36;;;;;;;5.60;2.60;;;;;;;10.18;91.78;99489.92;130487;1267;108896;-79
2022/10/03 04:03:12;;;;;;;4.10;2.30;;;;;;;10.19;91.41;99486.96;130514;1267;108881;-78
2022/10/03 04:06:35;;;;;;;3.70;2.20;;;;;;;10.17;91.72;99487.56;130340;1268;108622;-78
2022/10/03 04:10:07;;;;;;;4.70;2.20;;;;;;;10.17;91.74;99485.20;130406;1267;109057;-78
2022/10/03 04:13:37;;;;;;;5.70;2.70;;;;;;;10.23;91.61;99476.96;130388;1267;109170;-77
2022/10/03 04:20:43;;;;;;;5.60;2.40;;;;;;;10.35;91.29;99477.38;130388;1267;108796;-77
2022/10/03 04:24:05;;;;;;;7.10;2.20;;;;;;;10.36;91.41;99480.33;130403;1267;108887;-77
2022/10/03 04:27:32;;;;;;;4.20;2.20;;;;;;;10.38;91.57;99474.72;130488;1267;108688;-77
2022/10/03 04:30:50;;;;;;;5.60;2.30;;;;;;;10.40;91.93;99474.58;130446;1267;108799;-77
2022/10/03 04:34:08;;;;;;;5.30;2.50;;;;;;;10.40;91.51;99467.08;130425;1268;108733;-77
2022/10/03 04:37:23;;;;;;;4.30;2.00;;;;;;;10.44;91.54;99476.11;130463;1267;108877;-77
2022/10/03 04:40:39;;;;;;;5.60;2.10;;;;;;;10.46;91.86;99468.39;130446;1268;109036;-78
2022/10/03 04:43:52;;;;;;;4.00;2.10;;;;;;;10.48;91.28;99475.86;130474;1267;108966;-77
2022/10/03 04:47:02;;;;;;;5.10;2.20;;;;;;;10.49;91.49;99473.91;130496;1267;108611;-79
2022/10/03 04:50:22;;;;;;;5.40;2.50;;;;;;;10.48;91.65;99471.88;130433;1267;108974;-78
2022/10/03 04:53:40;;;;;;;7.30;2.80;;;;;;;10.48;92.18;99481.35;130368;1267;107819;-79
2022/10/03 04:56:54;;;;;;;4.60;1.80;;;;;;;10.44;92.43;99471.97;131292;1268;109083;-78
2022/10/03 05:00:14;;;;;;;4.70;2.20;;;;;;;10.44;92.41;99474.83;130482;1267;108780;-77
2022/10/03 05:03:29;;;;;;;7.30;2.40;;;;;;;10.48;92.61;99469.76;130454;1268;108961;-74
2022/10/03 05:06:46;;;;;;;4.80;2.40;;;;;;;10.51;92.14;99466.61;130457;1267;108245;-76
2022/10/03 05:09:56;;;;;;;5.40;2.10;;;;;;;10.47;92.34;99466.28;130494;1267;108716;-77
2022/10/03 05:13:10;;;;;;;5.70;2.60;;;;;;;10.45;92.49;99467.92;130520;1268;107747;-77
2022/10/03 05:16:27;;;;;;;6.40;2.40;;;;;;;10.48;92.72;99467.12;130584;1268;107362;-77
2022/10/03 05:19:51;;;;;;;8.90;2.40;;;;;;;10.48;92.31;99464.55;130427;1268;109050;-78
2022/10/03 05:23:06;;;;;;;5.70;2.50;;;;;;;10.49;92.61;99469.08;130378;1268;108732;-77
2022/10/03 05:26:22;;;;;;;3.70;2.00;;;;;;;10.48;92.48;99464.42;130490;1268;108551;-76
2022/10/03 05:29:41;;;;;;;5.20;2.20;;;;;;;10.50;92.16;99462.98;130501;1267;108664;-77
2022/10/03 05:32:52;;;;;;;4.80;1.80;;;;;;;10.55;92.57;99467.56;130588;1266;108773;-77
2022/10/03 05:36:10;;;;;;;5.10;2.50;;;;;;;10.54;92.65;99464.83;130432;1268;108712;-76
2022/10/03 05:39:42;;;;;;;4.70;2.00;;;;;;;10.53;92.81;99466.17;130634;1267;109806;-77
2022/10/03 05:43:05;;;;;;;7.30;1.90;;;;;;;10.55;92.56;99462.42;130525;1268;108967;-78
2022/10/03 05:46:21;;;;;;;5.60;2.00;;;;;;;10.55;92.71;99460.66;130507;1267;108766;-77
2022/10/03 05:49:49;;;;;;;5.90;1.80;;;;;;;10.57;92.31;99454.88;130392;1268;108799;-78
2022/10/03 05:53:09;;;;;;;4.50;1.80;;;;;;;10.56;92.51;99456.52;130496;1267;108714;-77
2022/10/03 05:56:34;;;;;;;4.70;1.80;;;;;;;10.61;92.43;99458.83;130455;1268;108892;-77
2022/10/03 06:00:06;;;;;;;6.30;2.10;;;;;;;10.69;91.70;99453.92;130501;1268;108991;-77
2022/10/03 06:03:36;;;;;;;8.00;2.20;;;;;;;10.76;91.73;99445.92;131845;1266;108550;-77
2022/10/03 06:07:01;;;;;;;7.20;1.80;;;;;;;10.87;91.15;99448.10;130462;1268;109447;-77
2022/10/03 06:10:34;;;;;;;5.40;1.60;;;;;;;11.00;91.03;99450.20;130416;1268;108811;-77
2022/10/03 06:13:57;;;;;;;5.70;1.90;;;;;;;11.06;90.57;99450.08;130335;1268;107346;-76
2022/10/03 06:17:23;;;;;;;4.60;1.70;;;;;;;11.16;90.50;99442.13;130520;1268;108657;-77
2022/10/03 06:21:18;;;;;;;10.10;3.30;;;;;;;11.16;89.70;99447.64;130347;1267;110199;-77
2022/10/03 06:24:56;;;;;;;7.90;3.20;;;;;;;11.19;89.93;99451.23;130403;1268;108865;-76
2022/10/03 06:28:24;;;;;;;5.40;2.10;;;;;;;11.25;89.59;99462.67;130454;1267;108743;-77
2022/10/03 06:32:13;;;;;;;3.40;1.70;;;;;;;11.24;89.55;99457.36;130416;1267;108923;-76
2022/10/03 06:35:56;;;;;;;2.80;1.50;;;;;;;11.24;89.47;99456.88;130226;1267;107740;-77
2022/10/03 06:39:51;;;;;;;3.70;1.50;;;;;;;11.24;89.36;99451.19;130411;1267;108791;-76
2022/10/03 06:43:33;;;;;;;3.90;1.90;;;;;;;11.27;89.48;99450.30;130472;1267;108754;-77
2022/10/03 06:47:14;;;;;;;5.40;1.90;;;;;;;11.24;89.08;99456.88;129988;1271;109760;-77
2022/10/03 06:50:41;;;;;;;5.40;2.90;;;;;;;11.23;89.83;99457.41;130500;1267;109054;-77
2022/10/03 06:54:10;;;;;;;6.70;2.70;;;;;;;11.13;90.09;99459.71;130506;1268;108791;-77
2022/10/03 06:57:36;;;;;;;7.40;2.10;;;;;;;11.08;90.58;99461.65;130435;1267;108880;-78
2022/10/03 07:01:04;;;;;;;3.40;1.90;;;;;;;11.04;90.80;99452.09;130517;1267;108742;-77
2022/10/03 07:04:26;;;;;;;3.70;1.90;;;;;;;11.00;91.19;99461.09;130494;1267;108726;-78
2022/10/03 07:08:20;;;;;;;5.00;2.00;;;;;;;10.95;92.09;99464.41;130373;1268;108645;-77
2022/10/03 07:11:43;;;;;;;4.00;1.80;;;;;;;10.85;92.45;99461.00;130473;1267;108871;-76
2022/10/03 07:15:25;;;;;;;8.10;2.20;;;;;;;10.85;92.56;99470.27;130464;1267;108863;-77
2022/10/03 07:19:07;;;;;;;4.30;2.10;;;;;;;10.80;92.84;99466.48;130445;1267;108758;-77
2022/10/03 07:22:52;;;;;;;4.40;1.80;;;;;;;10.78;93.07;99469.77;130407;1268;108887;-77
2022/10/03 07:26:34;;;;;;;5.00;1.70;;;;;;;10.76;93.46;99467.14;129968;1268;108940;-77
2022/10/03 07:30:13;;;;;;;4.90;2.10;;;;;;;10.76;93.56;99471.04;130537;1266;108690;-77
2022/10/03 07:33:45;;;;;;;6.40;2.90;;;;;;;10.80;94.15;99475.02;130411;1268;108928;-78
2022/10/03 07:40:57;;;;;;;4.70;2.40;;;;;;;10.70;94.90;99484.88;130260;1268;108425;-78
2022/10/03 07:44:46;;;;;;;24.40;13.00;;;;;;;10.60;95.44;99476.22;130372;1267;108859;-78
2022/10/03 07:48:12;;;;;;;6.80;4.30;;;;;;;10.64;95.20;99478.63;130365;1266;107999;-77
2022/10/03 07:51:39;;;;;;;11.90;6.80;;;;;;;10.66;95.28;99475.05;130445;1268;109115;-77
2022/10/03 07:55:21;;;;;;;6.60;2.80;;;;;;;10.68;95.42;99476.25;130426;1268;108480;-78
2022/10/03 07:58:53;;;;;;;8.50;3.40;;;;;;;10.75;94.88;99478.77;130412;1268;108739;-77
2022/10/03 08:02:16;;;;;;;59.80;34.40;;;;;;;10.77;95.14;99478.63;130446;1266;107899;-77
2022/10/03 08:05:39;;;;;;;8.50;4.90;;;;;;;10.79;94.73;99479.81;130544;1267;108906;-77
2022/10/03 08:08:55;;;;;;;;;;;;;;;10.94;94.63;99483.94;130338;1267;108694;-77
2022/10/03 08:12:30;;;;;;;5.70;2.90;;;;;;;11.14;94.03;99484.13;130378;1268;108522;-78
2022/10/03 08:16:03;;;;;;;14.20;6.60;;;;;;;11.22;93.57;99485.64;130549;1267;108724;-77
2022/10/03 08:19:15;;;;;;;;;;;;;;;11.35;93.27;99482.69;130546;1268;108897;-78
2022/10/03 08:22:37;;;;;;;4.10;2.60;;;;;;;11.51;92.72;99480.35;130525;1268;108882;-78
2022/10/03 08:25:58;;;;;;;7.60;2.90;;;;;;;11.60;92.27;99483.53;130371;1267;108800;-78
2022/10/03 08:29:30;;;;;;;5.70;2.50;;;;;;;11.62;91.68;99486.89;130513;1268;108376;-77
2022/10/03 08:33:00;;;;;;;19.40;11.30;;;;;;;11.57;90.86;99492.11;130519;1268;107967;-77
2022/10/03 08:36:53;;;;;;;4.30;2.70;;;;;;;11.54;90.98;99499.02;130369;1268;108718;-79
2022/10/03 08:40:52;;;;;;;4.70;2.60;;;;;;;11.61;90.86;99499.79;129877;1273;108478;-78
2022/10/03 08:44:23;;;;;;;5.50;3.10;;;;;;;11.65;90.20;99502.73;130091;1269;108938;-77
2022/10/03 08:48:14;;;;;;;18.00;9.90;;;;;;;11.68;90.17;99496.09;130267;1268;108625;-78
2022/10/03 08:51:47;;;;;;;5.60;3.50;;;;;;;11.77;89.55;99496.83;130453;1268;108447;-78
2022/10/03 08:55:33;;;;;;;16.70;11.80;;;;;;;11.91;88.87;99502.77;130455;1268;108629;-77
2022/10/03 08:59:16;;;;;;;5.40;3.80;;;;;;;12.10;87.90;99500.55;130417;1268;108800;-78
2022/10/03 09:03:02;;;;;;;7.30;4.00;;;;;;;12.22;87.11;99491.23;130396;1268;109063;-77
2022/10/03 09:06:40;;;;;;;6.70;3.40;;;;;;;12.35;87.32;99489.56;130436;1268;108769;-77
2022/10/03 09:10:15;;;;;;;5.90;3.30;;;;;;;12.52;85.93;99489.45;130387;1268;108856;-78
2022/10/03 09:13:57;;;;;;;4.70;3.40;;;;;;;12.62;84.92;99493.59;130348;1268;108852;-78
2022/10/03 09:17:25;;;;;;;5.80;4.20;;;;;;;12.73;83.21;99491.35;130392;1268;108838;-78
2022/10/03 09:20:58;;;;;;;6.80;4.20;;;;;;;12.81;83.10;99488.81;130106;1268;108696;-78
2022/10/03 09:24:34;;;;;;;5.20;3.40;;;;;;;12.88;83.16;99493.64;130492;1268;108731;-78
2022/10/03 09:28:11;;;;;;;4.80;3.10;;;;;;;12.77;83.19;99507.46;130438;1268;107584;-79
2022/10/03 09:31:39;;;;;;;8.60;3.90;;;;;;;12.58;83.50;99512.42;130490;1268;108675;-78
2022/10/03 09:35:02;;;;;;;6.30;3.20;;;;;;;12.36;85.26;99516.41;130373;1268;108296;-78
2022/10/03 09:38:59;;;;;;;5.10;3.50;;;;;;;12.18;85.55;99518.83;130311;1268;107789;-78
2022/10/03 09:42:42;;;;;;;5.50;3.50;;;;;;;12.09;85.64;99525.63;130453;1268;108619;-78
2022/10/03 09:46:08;;;;;;;5.80;3.60;;;;;;;12.03;85.04;99534.51;130420;1268;108684;-78
2022/10/03 09:49:48;;;;;;;5.50;3.90;;;;;;;11.93;85.92;99544.02;130435;1268;108694;-78
2022/10/03 09:53:28;;;;;;;7.50;4.30;;;;;;;11.83;86.13;99548.25;130248;1268;108809;-77
2022/10/03 09:57:18;;;;;;;6.10;3.80;;;;;;;11.76;85.97;99555.57;130519;1268;108701;-77
2022/10/03 10:00:27;;;;;;;9.80;6.50;;;;;;;11.78;86.36;99560.50;130447;1268;108669;-78
2022/10/03 10:04:08;;;;;;;18.50;9.70;;;;;;;11.84;85.56;99564.91;130499;1268;108619;-78
2022/10/03 10:08:03;;;;;;;7.90;5.10;;;;;;;11.94;84.88;99562.52;130455;1266;108857;-78
2022/10/03 10:11:26;;;;;;;13.30;7.60;;;;;;;12.11;84.81;99568.38;130513;1268;108810;-78
2022/10/03 10:14:54;;;;;;;7.90;5.10;;;;;;;12.17;84.10;99575.77;130394;1267;108637;-78
2022/10/03 10:18:33;;;;;;;5.90;4.40;;;;;;;12.33;84.00;99570.55;130393;1268;109761;-77
2022/10/03 10:21:54;;;;;;;5.80;4.20;;;;;;;12.48;82.23;99578.47;130537;1268;109143;-78
2022/10/03 10:25:51;;;;;;;5.00;4.00;;;;;;;12.59;81.65;99580.29;130447;1268;107192;-78
2022/10/03 10:29:31;;;;;;;9.90;6.70;;;;;;;12.76;80.79;99582.20;129729;1274;108799;-77
2022/10/03 10:33:07;;;;;;;8.50;5.90;;;;;;;12.81;79.62;99592.69;130059;1268;108701;-78
2022/10/03 10:37:07;;;;;;;6.90;5.50;;;;;;;12.84;79.81;99589.88;130417;1268;108958;-78
2022/10/03 10:40:37;;;;;;;6.60;3.50;;;;;;;12.86;78.93;99594.94;130391;1268;108880;-80
2022/10/03 10:44:20;;;;;;;10.90;6.40;;;;;;;12.87;78.51;99603.64;130447;1268;108880;-79
2022/10/03 10:47:53;;;;;;;;;;;;;;;12.78;77.84;99611.79;130504;1268;108700;-79
2022/10/03 10:51:46;;;;;;;4.80;3.60;;;;;;;12.62;79.17;99610.07;130466;1268;107599;-77
2022/10/03 10:55:26;;;;;;;5.00;3.00;;;;;;;12.44;79.43;99614.23;130271;1268;108742;-77
2022/10/03 10:59:21;;;;;;;5.40;2.80;;;;;;;12.28;79.30;99613.59;130313;1268;107901;-77
2022/10/03 11:03:00;;;;;;;6.60;3.10;;;;;;;12.14;79.38;99623.43;130031;1273;108638;-78
2022/10/03 11:06:36;;;;;;;5.00;3.10;;;;;;;12.12;79.74;99628.70;129943;1268;109063;-80
2022/10/03 11:09:52;;;;;;;14.40;7.70;;;;;;;12.23;78.86;99642.36;130372;1267;108654;-77
2022/10/03 11:13:42;;;;;;;5.30;3.70;;;;;;;12.39;78.35;99642.75;130464;1268;108590;-77
2022/10/03 11:17:28;;;;;;;7.90;5.30;;;;;;;12.60;77.63;99635.48;130293;1268;108730;-78
2022/10/03 11:21:18;;;;;;;5.10;3.50;;;;;;;12.87;77.22;99640.58;130328;1268;108702;-78
2022/10/03 11:25:02;;;;;;;5.30;3.40;;;;;;;13.03;75.29;99647.21;130103;1271;108766;-77
2022/10/03 11:28:45;;;;;;;6.50;4.00;;;;;;;13.18;75.35;99629.84;130513;1268;108552;-79
2022/10/03 11:32:35;;;;;;;3.90;2.40;;;;;;;13.44;74.12;99641.52;130222;1268;108759;-78
2022/10/03 11:36:06;;;;;;;4.90;2.20;;;;;;;13.72;71.22;99638.16;130527;1268;108751;-79
2022/10/03 11:39:22;;;;;;;4.60;2.10;;;;;;;13.78;69.10;99644.45;130354;1268;108695;-78
2022/10/03 11:42:41;;;;;;;2.80;1.70;;;;;;;13.91;69.02;99654.76;130467;1268;108624;-79
2022/10/03 11:45:53;;;;;;;3.70;1.80;;;;;;;13.91;68.45;99644.73;130396;1268;108755;-78
2022/10/03 11:49:08;;;;;;;2.80;1.60;;;;;;;13.95;66.92;99649.46;130308;1268;108761;-79
2022/10/03 11:52:26;;;;;;;2.90;2.00;;;;;;;13.85;66.94;99648.70;131879;1266;107778;-79
2022/10/03 11:55:40;;;;;;;2.70;1.70;;;;;;;13.66;67.86;99652.44;130484;1268;108805;-79
2022/10/03 11:59:00;;;;;;;3.10;1.70;;;;;;;13.50;68.92;99656.37;130389;1268;108863;-78
2022/10/03 12:02:33;;;;;;;3.20;2.00;;;;;;;13.30;69.91;99676.33;130519;1268;108723;-79
2022/10/03 12:05:51;;;;;;;2.90;2.30;;;;;;;13.03;72.96;99689.73;130381;1268;108994;-78
2022/10/03 12:09:13;;;;;;;3.10;2.00;;;;;;;12.80;75.15;99700.13;130562;1268;108815;-79
2022/10/03 12:12:26;;;;;;;;;;;;;;;12.70;76.69;99706.56;130463;1268;108748;-78
2022/10/03 12:15:40;;;;;;;2.40;1.80;;;;;;;12.50;77.44;99713.59;130518;1268;108655;-78
2022/10/03 12:19:01;;;;;;;2.50;2.00;;;;;;;12.26;80.31;99723.81;130425;1268;108693;-78
2022/10/03 12:22:20;;;;;;;3.70;1.90;;;;;;;11.98;82.04;99720.77;130436;1268;108943;-78
2022/10/03 12:25:29;;;;;;;2.90;1.80;;;;;;;11.81;81.92;99723.42;130337;1268;108756;-78
2022/10/03 12:28:39;;;;;;;5.50;1.50;;;;;;;11.70;81.58;99724.98;130496;1268;108595;-79
2022/10/03 12:31:53;;;;;;;1.50;1.20;;;;;;;11.60;80.52;99719.54;130478;1268;108436;-78
2022/10/03 12:35:14;;;;;;;2.80;1.50;;;;;;;11.65;79.64;99717.41;130512;1268;108792;-79
2022/10/03 12:38:33;;;;;;;2.40;1.40;;;;;;;11.67;78.71;99729.23;130435;1268;108734;-78
2022/10/03 12:42:04;;;;;;;1.50;1.20;;;;;;;11.70;78.59;99725.42;130484;1268;108793;-78
2022/10/03 12:45:20;;;;;;;1.80;1.40;;;;;;;11.69;78.48;99721.42;130476;1267;108742;-77
2022/10/03 12:48:42;;;;;;;2.00;1.40;;;;;;;11.66;78.82;99715.34;130486;1268;108617;-77
2022/10/03 12:51:58;;;;;;;3.40;1.70;;;;;;;11.75;79.08;99713.10;130242;1268;108999;-77
2022/10/03 12:55:23;;;;;;;6.70;1.90;;;;;;;11.89;79.03;99719.56;130501;1268;108701;-77
2022/10/03 12:58:38;;;;;;;3.80;1.90;;;;;;;12.01;78.54;99721.55;130309;1268;108746;-77
2022/10/03 13:02:16;;;;;;;2.90;1.90;;;;;;;12.21;79.27;99728.56;130512;1268;108838;-77
2022/10/03 13:05:56;;;;;;;2.50;1.60;;;;;;;12.43;75.21;99737.83;130392;1268;108728;-77
2022/10/03 13:09:26;;;;;;;3.20;2.10;;;;;;;12.58;75.82;99726.43;130530;1268;108851;-77
2022/10/03 13:12:45;;;;;;;3.50;1.60;;;;;;;12.68;75.06;99733.95;130427;1268;108683;-78
2022/10/03 13:16:24;;;;;;;3.00;2.50;;;;;;;12.71;74.61;99736.63;130422;1268;108822;-78
2022/10/03 13:19:38;;;;;;;2.80;1.70;;;;;;;12.72;74.40;99740.48;130035;1271;108945;-78
2022/10/03 13:22:52;;;;;;;2.90;2.00;;;;;;;12.92;75.00;99737.65;130556;1268;108822;-78
2022/10/03 13:26:11;;;;;;;2.80;2.00;;;;;;;13.26;75.16;99735.55;130451;1267;108779;-77
2022/10/03 13:29:37;;;;;;;3.40;1.80;;;;;;;13.49;73.44;99739.47;130443;1267;108712;-77
2022/10/03 13:32:47;;;;;;;6.40;4.40;;;;;;;13.45;71.78;99752.29;130513;1268;108755;-79
2022/10/03 13:36:01;;;;;;;8.00;5.60;;;;;;;13.52;71.85;99754.08;130497;1268;108669;-77
2022/10/03 13:39:17;;;;;;;4.50;2.10;;;;;;;13.65;70.47;99757.72;130415;1266;108685;-78
2022/10/03 13:42:45;;;;;;;4.30;1.80;;;;;;;13.60;69.02;99759.72;130501;1267;109022;-78
2022/10/03 13:45:58;;;;;;;2.60;1.80;;;;;;;13.46;68.32;99756.84;130261;1267;107738;-77
2022/10/03 13:49:17;;;;;;;2.20;1.50;;;;;;;13.36;68.26;99764.20;130492;1267;108944;-79
2022/10/03 13:52:33;;;;;;;2.30;1.80;;;;;;;13.33;69.63;99766.34;130409;1268;108401;-77
2022/10/03 13:55:48;;;;;;;2.20;1.40;;;;;;;13.36;69.99;99771.91;130413;1267;107718;-77
2022/10/03 13:59:01;;;;;;;3.40;2.10;;;;;;;13.32;69.39;99779.65;130458;1268;108827;-78
2022/10/03 14:02:22;;;;;;;2.90;1.80;;;;;;;13.28;70.18;99781.02;130461;1267;108982;-78
2022/10/03 14:06:00;;;;;;;10.20;6.60;;;;;;;13.29;70.00;99783.27;130429;1267;108908;-77
2022/10/03 14:09:44;;;;;;;5.30;3.60;;;;;;;13.26;70.04;99789.69;130421;1267;108920;-79
2022/10/03 14:13:02;;;;;;;2.90;2.10;;;;;;;13.13;69.13;99792.62;129966;1268;109716;-77
2022/10/03 14:16:19;;;;;;;3.30;2.10;;;;;;;13.02;69.12;99798.79;130387;1268;108780;-78
2022/10/03 14:19:35;;;;;;;8.40;5.80;;;;;;;13.00;70.25;99795.79;130371;1268;108978;-78
2022/10/03 14:22:50;;;;;;;5.40;2.40;;;;;;;12.95;71.05;99806.49;130415;1268;109932;-78
2022/10/03 14:26:10;;;;;;;8.80;5.70;;;;;;;12.87;72.02;99815.70;130291;1267;108947;-78
2022/10/03 14:29:24;;;;;;;5.00;3.20;;;;;;;12.78;73.22;99815.09;130527;1268;108761;-78
2022/10/03 14:32:39;;;;;;;9.80;6.30;;;;;;;12.64;74.75;99827.60;130392;1268;108968;-78
2022/10/03 14:35:55;;;;;;;3.10;2.10;;;;;;;12.49;74.75;99832.48;130486;1267;109210;-78
2022/10/03 14:39:10;;;;;;;5.10;3.70;;;;;;;12.38;74.77;99838.45;130345;1267;108847;-78
2022/10/03 14:42:32;;;;;;;3.00;1.70;;;;;;;12.20;76.73;99848.80;130433;1267;108834;-79
2022/10/03 14:45:48;;;;;;;2.50;1.90;;;;;;;12.03;77.94;99851.27;130435;1266;109290;-78
2022/10/03 14:48:59;;;;;;;5.20;3.80;;;;;;;11.87;78.92;99850.59;130518;1267;108465;-78
2022/10/03 14:52:11;;;;;;;4.60;2.50;;;;;;;11.71;79.84;99857.77;130457;1268;108682;-78
2022/10/03 14:55:55;;;;;;;4.80;2.50;;;;;;;11.58;81.03;99859.95;130430;1268;108868;-78
2022/10/03 14:59:12;;;;;;;9.80;5.70;;;;;;;11.51;81.89;99860.95;130431;1268;108982;-80
2022/10/03 15:02:35;;;;;;;5.80;3.80;;;;;;;11.49;81.72;99866.31;130330;1268;110194;-77
2022/10/03 15:06:19;;;;;;;5.50;3.30;;;;;;;11.51;81.42;99868.77;130322;1267;108880;-77
2022/10/03 15:09:41;;;;;;;4.10;3.20;;;;;;;11.46;82.01;99878.25;130385;1267;106902;-69
2022/10/03 15:12:52;;;;;;;8.50;5.80;;;;;;;11.37;81.85;99876.27;130375;1267;108896;-69
2022/10/03 15:16:00;;;;;;;25.70;14.30;;;;;;;11.30;81.96;99875.28;130265;1267;107651;-70
2022/10/03 15:19:13;;;;;;;12.70;6.20;;;;;;;11.22;82.21;99880.13;130371;1267;108757;-69
2022/10/03 15:22:31;;;;;;;13.70;6.40;;;;;;;11.17;82.04;99880.95;130279;1267;108754;-70
2022/10/03 15:25:40;;;;;;;8.50;5.00;;;;;;;11.16;82.14;99882.59;130356;1267;108824;-70
2022/10/03 15:28:49;;;;;;;11.20;6.40;;;;;;;11.14;81.39;99879.75;130390;1266;108722;-70
2022/10/03 15:31:57;;;;;;;16.40;7.60;;;;;;;11.11;81.68;99879.31;130306;1267;109080;-71
2022/10/03 15:35:04;;;;;;;17.20;8.50;;;;;;;11.06;81.40;99884.31;130374;1268;108930;-70
2022/10/03 15:38:25;;;;;;;11.40;6.60;;;;;;;11.00;81.54;99884.77;130449;1268;108553;-69
2022/10/03 15:41:36;;;;;;;7.30;3.50;;;;;;;10.91;82.15;99889.97;130295;1268;109008;-72
2022/10/03 15:44:52;;;;;;;6.80;3.20;;;;;;;10.85;81.83;99893.70;130375;1268;108624;-72
2022/10/03 15:48:16;;;;;;;7.70;3.60;;;;;;;10.83;81.28;99898.73;130362;1267;108627;-72
2022/10/03 15:51:26;;;;;;;8.00;4.70;;;;;;;10.82;81.47;99893.30;130317;1268;108684;-71
2022/10/03 15:54:44;;;;;;;8.00;5.60;;;;;;;10.82;81.82;99891.15;130259;1267;108747;-71